Terminal Aerodrome Forecast
Issued by NWS Sterling, VA

Home | Current Version | Previous Version | Text Only | Print | Product List | Glossary On
Versions: 1 2 3 4 5 6 7 8 9 10 11 12 13 14 15 16 17 18 19 20 21
000
FTUS41 KLWX 311400 AAA
TAFIAD
TAF AMD
KIAD 311439Z 3115/0118 31012KT P6SM FEW250
     FM312100 31007KT P6SM FEW250
     FM010100 VRB03KT P6SM FEW250
     FM011400 20004KT P6SM OVC090=

USA.gov is the U.S. government's official web portal to all federal, state and local government web resources and services.